Wangerooge, Germany

3:37 PM CEST on October 21, 2014 (GMT +0200)
W'ooge-Airport | Change Station
CLOSE
Current Station
Personal Weather Station
Location: Wangerooge, NI
Elevation: 6 ft
Nearby Weather Stations

Elev 6 ft 53.79 °N, 7.91 °E | Updated 6 minutes ago

Mostly Cloudy
Mostly Cloudy
53.0 °F
Feels Like 53.0 °F
N
15.0
Wind Variable Wind from SSW
Gusts 30.0 mph

Today
High -- | Low -- °F
--% Chance of Precip.
Yesterday
High -- | Low -- °F
Precip. -- in
8:06 AM 6:18 PM
Waning Crescent, 5% visible
Pressure 29.36 in
Visibility 4.3 miles
Clouds Mostly Cloudy 800 ft
Dew Point 46 °F
Humidity 76%
Rainfall 0.09 in
Snow Depth Not available.
UV 1 out of 12
Pollen Not available.
Air Quality Not available.
Flu Activity Not available.
METAR ETNT 211320Z 20016KT 7000 BKN008 12/11 Q0994 GRN GRN

More Conditions Fewer Conditions

Pressure 29.36 in
Visibility 4.3 miles
Clouds Mostly Cloudy 800 ft
Dew Point 46 °F
Humidity 76%
Rainfall 0.09 in
Snow Depth Not available.
UV 1 out of 12
Pollen Not available.
Air Quality Not available.
Flu Activity Not available.
METAR ETNT 211320Z 20016KT 7000 BKN008 12/11 Q0994 GRN GRN

More Conditions Fewer Conditions

10-Day Weather Forecast

Almanac

Astronomy

Oct. 21, 2014 Rise Set
Actual Time 8:06 AM CEST 6:18 PM CEST
Civil Twilight 7:30 AM CEST 6:54 PM CEST
Nautical Twilight 6:49 AM CEST 7:35 PM CEST
Astronomical Twilight 6:09 AM CEST 8:15 PM CEST
Moon 5:14 AM CEST 5:20 PM CEST
Length of Visible Light 11h 23m
Length of Day
10h 11m
Tomorrow will be 4m 7s shorter.
Waning Crescent, 5% of the Moon is Illuminated
Today
Waning Crescent
Oct 23
New
Oct 30
First Quarter
Nov 6
Full
Nov 14
Last Quarter

Yesterday's Extremes

Country Highs Country Lows

Community

WunderPhotos

Upload Photos

1,763,662 photos uploaded!

Nearby

Snow Depth

Not available.

Earthquake Activity

City Distance Mag. Time & Date
No recent earthquake activity has been reported nearby.
Minimum magnitude displayed is 2.5.

Coastal Water Temperatures

Place Temperature
No Stations Reporting

Nearby Weather Stations